Time;durP1;ratioP1;P1;durP2;ratioP2;P2;SDS_P1;SDS_P2;PMS_P1;PMS_P2;Temp;Humidity;BMP_temperature;BMP_pressure;BME280_temperature;BME280_humidity;BME280_pressure;Samples;Min_cycle;Max_cycle;Signal;HPM_P1;HPM_P2
2022/07/28 00:01:42;;;;;;;2.03;1.93;;;15.70;99.90;;;;;;493282;241;28799;-70
2022/07/28 00:03:44;;;;;;;2.00;1.90;;;15.60;99.90;;;;;;493266;241;28683;-70
2022/07/28 00:05:45;;;;;;;1.87;1.77;;;15.60;99.90;;;;;;493180;241;28756;-68
2022/07/28 00:07:46;;;;;;;1.77;1.67;;;15.50;99.90;;;;;;493157;241;28715;-67
2022/07/28 00:09:47;;;;;;;2.70;2.23;;;15.50;99.90;;;;;;493270;241;28724;-68
2022/07/28 00:11:48;;;;;;;2.47;2.20;;;15.40;99.90;;;;;;493280;241;28743;-70
2022/07/28 00:13:49;;;;;;;1.70;1.60;;;15.50;99.90;;;;;;493273;241;28776;-68
2022/07/28 00:15:51;;;;;;;2.73;2.13;;;15.40;99.90;;;;;;493247;241;28847;-68
2022/07/28 00:17:52;;;;;;;2.10;2.00;;;15.40;99.90;;;;;;493207;241;28695;-68
2022/07/28 00:19:53;;;;;;;2.07;1.93;;;15.40;99.90;;;;;;493171;241;28665;-68
2022/07/28 00:21:54;;;;;;;2.23;2.10;;;15.40;99.90;;;;;;493291;241;28428;-69
2022/07/28 00:23:56;;;;;;;1.97;1.87;;;15.30;99.90;;;;;;493269;241;28103;-68
2022/07/28 00:25:57;;;;;;;2.10;1.87;;;15.30;99.90;;;;;;493256;241;28719;-67
2022/07/28 00:27:58;;;;;;;2.50;1.93;;;15.30;99.90;;;;;;493195;241;28645;-72
2022/07/28 00:29:59;;;;;;;2.20;2.00;;;15.30;99.90;;;;;;493299;241;28476;-68
2022/07/28 00:32:01;;;;;;;2.57;2.37;;;15.20;99.90;;;;;;493301;241;29223;-69
2022/07/28 00:34:02;;;;;;;2.43;1.93;;;15.30;99.90;;;;;;493274;241;29128;-68
2022/07/28 00:36:03;;;;;;;2.03;1.90;;;15.20;99.90;;;;;;493017;241;29207;-70
2022/07/28 00:38:04;;;;;;;2.00;1.90;;;15.20;99.90;;;;;;493243;241;28801;-67
2022/07/28 00:40:06;;;;;;;1.97;1.70;;;15.20;99.90;;;;;;493283;241;28676;-68
2022/07/28 00:42:07;;;;;;;1.60;1.50;;;15.20;99.90;;;;;;493258;241;28359;-69
2022/07/28 00:44:08;;;;;;;2.00;1.70;;;15.10;99.90;;;;;;493255;241;28669;-67
2022/07/28 00:46:09;;;;;;;3.50;2.20;;;15.10;99.90;;;;;;493201;241;28747;-68
2022/07/28 00:48:11;;;;;;;2.23;2.03;;;15.10;99.90;;;;;;493267;241;28295;-67
2022/07/28 00:50:12;;;;;;;2.20;1.73;;;15.10;99.90;;;;;;493287;241;28748;-67
2022/07/28 00:52:13;;;;;;;2.10;1.97;;;15.10;99.90;;;;;;493263;241;28520;-69
2022/07/28 00:54:15;;;;;;;1.90;1.80;;;15.10;99.90;;;;;;493284;241;28682;-68
2022/07/28 00:56:16;;;;;;;2.20;1.70;;;15.00;99.90;;;;;;493196;241;28875;-69
2022/07/28 00:58:17;;;;;;;1.90;1.80;;;15.00;99.90;;;;;;493240;241;30051;-67
2022/07/28 01:00:18;;;;;;;1.90;1.80;;;15.00;99.90;;;;;;493271;241;29138;-68
2022/07/28 01:02:20;;;;;;;2.07;1.87;;;15.00;99.90;;;;;;493265;241;29268;-70
2022/07/28 01:04:21;;;;;;;2.30;1.70;;;15.00;99.90;;;;;;493255;241;28409;-67
2022/07/28 01:06:22;;;;;;;1.90;1.70;;;14.90;99.90;;;;;;493178;241;28322;-69
2022/07/28 01:08:23;;;;;;;1.80;1.70;;;14.90;99.90;;;;;;493221;241;28452;-68
2022/07/28 01:10:25;;;;;;;2.00;1.90;;;14.90;99.90;;;;;;493271;241;28374;-67
2022/07/28 01:12:26;;;;;;;1.73;1.63;;;14.90;99.90;;;;;;493278;241;28504;-68
2022/07/28 01:14:27;;;;;;;2.30;1.90;;;14.90;99.90;;;;;;493248;241;28706;-68
2022/07/28 01:16:28;;;;;;;1.90;1.80;;;14.90;99.90;;;;;;493201;241;28421;-68
2022/07/28 01:18:30;;;;;;;1.70;1.60;;;14.90;99.90;;;;;;493258;241;28649;-68
2022/07/28 01:20:31;;;;;;;2.47;1.90;;;14.90;99.90;;;;;;493267;241;28636;-67
2022/07/28 01:22:32;;;;;;;2.30;2.20;;;14.90;99.90;;;;;;493234;241;29549;-69
2022/07/28 01:24:33;;;;;;;2.03;1.93;;;14.80;99.90;;;;;;493254;241;29178;-68
2022/07/28 01:26:35;;;;;;;2.47;1.90;;;14.80;99.90;;;;;;493202;241;28666;-68
2022/07/28 01:28:36;;;;;;;2.40;1.80;;;14.80;99.90;;;;;;493278;241;28402;-71
2022/07/28 01:30:37;;;;;;;2.00;1.60;;;14.80;99.90;;;;;;493269;241;28790;-68
2022/07/28 01:32:38;;;;;;;1.90;1.80;;;14.80;99.90;;;;;;493255;241;28502;-70
2022/07/28 01:34:40;;;;;;;1.90;1.80;;;14.80;99.90;;;;;;493175;241;28671;-70
2022/07/28 01:36:41;;;;;;;1.73;1.63;;;14.70;99.90;;;;;;493046;241;28291;-68
2022/07/28 01:38:42;;;;;;;1.80;1.70;;;14.70;99.90;;;;;;493260;241;28689;-70
2022/07/28 01:40:44;;;;;;;1.60;1.50;;;14.70;99.90;;;;;;493284;241;28933;-67
2022/07/28 01:42:45;;;;;;;1.97;1.87;;;14.70;99.90;;;;;;493271;241;28656;-68
2022/07/28 01:44:46;;;;;;;1.63;1.53;;;14.80;99.90;;;;;;493253;241;28743;-68
2022/07/28 01:46:47;;;;;;;1.60;1.53;;;14.80;99.90;;;;;;493209;241;28377;-68
2022/07/28 01:48:48;;;;;;;1.80;1.70;;;14.90;99.90;;;;;;493295;241;28428;-67
2022/07/28 01:50:50;;;;;;;3.20;1.90;;;14.90;99.90;;;;;;493275;241;28385;-68
2022/07/28 01:52:51;;;;;;;1.90;1.80;;;14.80;99.90;;;;;;493283;241;28790;-69
2022/07/28 01:54:52;;;;;;;1.53;1.50;;;14.70;99.90;;;;;;493237;241;28282;-67
2022/07/28 01:56:53;;;;;;;4.63;1.83;;;14.80;99.90;;;;;;493208;241;28178;-68
2022/07/28 01:58:55;;;;;;;2.77;2.07;;;14.70;99.90;;;;;;493283;241;28389;-67
2022/07/28 02:00:56;;;;;;;1.57;1.53;;;14.70;99.90;;;;;;493290;241;28279;-67
2022/07/28 02:02:57;;;;;;;1.80;1.70;;;14.70;99.90;;;;;;493242;241;28432;-69
2022/07/28 02:04:59;;;;;;;1.80;1.70;;;14.80;99.90;;;;;;493249;241;29214;-67
2022/07/28 02:07:00;;;;;;;1.50;1.40;;;14.80;99.90;;;;;;493121;241;28878;-68
2022/07/28 02:09:01;;;;;;;1.80;1.70;;;14.80;99.90;;;;;;493196;241;28851;-67
2022/07/28 02:13:22;;;;;;;1.83;1.73;;;14.60;99.90;;;;;;493218;241;28382;-68
2022/07/28 02:15:23;;;;;;;2.20;1.80;;;14.60;99.90;;;;;;493256;241;28449;-70
2022/07/28 02:17:25;;;;;;;1.50;1.47;;;14.70;99.90;;;;;;493200;241;28220;-68
2022/07/28 02:19:26;;;;;;;1.60;1.50;;;14.70;99.90;;;;;;493274;241;28313;-68
2022/07/28 02:21:27;;;;;;;1.47;1.47;;;14.70;99.90;;;;;;493212;241;29659;-67
2022/07/28 02:23:28;;;;;;;1.80;1.70;;;14.80;99.90;;;;;;493248;241;28736;-68
2022/07/28 02:25:30;;;;;;;1.60;1.50;;;14.80;99.90;;;;;;493258;241;28986;-72
2022/07/28 02:27:31;;;;;;;1.93;1.77;;;14.80;99.90;;;;;;493189;241;29235;-68
2022/07/28 02:29:32;;;;;;;1.77;1.70;;;14.80;99.90;;;;;;493245;241;28828;-68
2022/07/28 02:31:33;;;;;;;1.47;1.47;;;14.80;99.90;;;;;;493230;241;28405;-68
2022/07/28 02:33:35;;;;;;;1.60;1.60;;;14.80;99.90;;;;;;493262;241;28366;-67
2022/07/28 02:35:36;;;;;;;1.90;1.80;;;14.80;99.90;;;;;;493105;241;28814;-71
2022/07/28 02:37:37;;;;;;;1.67;1.57;;;14.70;99.90;;;;;;493178;241;28243;-68
2022/07/28 02:39:38;;;;;;;1.80;1.70;;;14.70;99.90;;;;;;493274;241;28413;-69
2022/07/28 02:41:40;;;;;;;1.80;1.70;;;14.70;99.90;;;;;;493271;241;28661;-70
2022/07/28 02:43:41;;;;;;;1.67;1.60;;;14.70;99.90;;;;;;493309;241;28902;-68
2022/07/28 02:45:42;;;;;;;2.03;1.83;;;14.70;99.90;;;;;;493276;241;28417;-69
2022/07/28 02:47:43;;;;;;;1.70;1.60;;;14.60;99.90;;;;;;493212;241;28373;-67
2022/07/28 02:49:45;;;;;;;1.73;1.67;;;14.60;99.90;;;;;;493246;241;28491;-68
2022/07/28 02:51:46;;;;;;;2.07;1.50;;;14.60;99.90;;;;;;493270;241;28373;-67
2022/07/28 02:53:47;;;;;;;1.63;1.57;;;14.50;99.90;;;;;;493271;241;28463;-68
2022/07/28 02:55:48;;;;;;;1.40;1.40;;;14.50;99.90;;;;;;493231;241;28462;-70
2022/07/28 02:57:50;;;;;;;2.00;1.90;;;14.50;99.90;;;;;;493182;241;28381;-67
2022/07/28 02:59:51;;;;;;;1.93;1.83;;;14.50;99.90;;;;;;493216;241;28417;-69
2022/07/28 03:01:52;;;;;;;1.60;1.50;;;14.50;99.90;;;;;;493222;241;28671;-68
2022/07/28 03:03:53;;;;;;;1.80;1.70;;;14.60;99.90;;;;;;493278;241;28931;-67
2022/07/28 03:05:55;;;;;;;1.40;1.40;;;14.50;99.90;;;;;;493247;241;29224;-71
2022/07/28 03:07:58;;;;;;;1.60;1.50;;;14.60;99.90;;;;;;493200;241;29122;-67
2022/07/28 03:09:57;;;;;;;1.50;1.40;;;14.50;99.90;;;;;;493121;241;28903;-68
2022/07/28 03:11:58;;;;;;;1.90;1.77;;;14.50;99.90;;;;;;493247;241;28280;-69
2022/07/28 03:14:00;;;;;;;1.70;1.60;;;14.50;99.90;;;;;;493302;241;28144;-68
2022/07/28 03:16:01;;;;;;;1.73;1.63;;;14.50;99.90;;;;;;493278;241;28441;-76
2022/07/28 03:18:02;;;;;;;3.00;1.90;;;14.40;99.90;;;;;;493259;241;28469;-68
2022/07/28 03:20:04;;;;;;;1.87;1.77;;;14.40;99.90;;;;;;493249;241;28504;-68
2022/07/28 03:22:05;;;;;;;2.17;1.93;;;14.40;99.90;;;;;;493258;241;28282;-68
2022/07/28 03:24:06;;;;;;;2.00;1.90;;;14.40;99.90;;;;;;493282;241;28328;-68
2022/07/28 03:26:07;;;;;;;1.80;1.70;;;14.10;99.90;;;;;;493218;241;28359;-73
2022/07/28 03:28:09;;;;;;;1.90;1.80;;;14.10;99.90;;;;;;493269;241;28287;-67
2022/07/28 03:30:10;;;;;;;4.60;2.20;;;14.20;99.90;;;;;;493220;241;29178;-68
2022/07/28 03:32:11;;;;;;;1.70;1.60;;;14.10;99.90;;;;;;493268;241;29534;-68
2022/07/28 03:34:12;;;;;;;1.97;1.83;;;14.10;99.90;;;;;;493275;241;28627;-68
2022/07/28 03:36:13;;;;;;;2.10;2.00;;;14.20;99.90;;;;;;493088;241;28310;-70
2022/07/28 03:38:15;;;;;;;2.13;1.90;;;14.20;99.90;;;;;;493272;241;28142;-68
2022/07/28 03:40:16;;;;;;;2.50;2.27;;;14.20;99.90;;;;;;493265;241;28223;-70
2022/07/28 03:42:17;;;;;;;2.13;2.00;;;14.20;99.90;;;;;;493265;241;28206;-68
2022/07/28 03:44:18;;;;;;;2.00;1.90;;;14.20;99.90;;;;;;493243;241;28391;-68
2022/07/28 03:46:20;;;;;;;2.87;1.80;;;14.20;99.90;;;;;;493228;241;28123;-72
2022/07/28 03:48:23;;;;;;;2.60;2.30;;;14.10;99.90;;;;;;493247;241;28073;-69
2022/07/28 03:50:22;;;;;;;2.20;1.70;;;14.20;99.90;;;;;;493063;241;28385;-69
2022/07/28 03:52:23;;;;;;;6.73;2.20;;;14.10;99.90;;;;;;493266;241;28163;-68
2022/07/28 03:54:25;;;;;;;3.07;1.90;;;14.20;99.90;;;;;;493286;241;28261;-69
2022/07/28 03:56:26;;;;;;;2.77;1.93;;;14.10;99.90;;;;;;493205;241;28085;-70
2022/07/28 03:58:27;;;;;;;2.10;1.90;;;14.20;99.90;;;;;;493232;241;28196;-68
2022/07/28 04:00:30;;;;;;;3.50;2.60;;;;;;;;;;493255;241;28223;-68
2022/07/28 04:02:33;;;;;;;1.90;1.80;;;14.10;99.90;;;;;;493288;240;26363;-68
2022/07/28 04:04:32;;;;;;;2.30;1.87;;;14.20;99.90;;;;;;493134;241;28076;-70
2022/07/28 04:06:33;;;;;;;2.20;2.00;;;14.10;99.90;;;;;;493187;241;28057;-67
2022/07/28 04:08:35;;;;;;;2.10;1.80;;;14.10;99.90;;;;;;493254;241;28215;-67
2022/07/28 04:10:36;;;;;;;2.10;1.90;;;14.20;99.90;;;;;;493232;241;28245;-67
2022/07/28 04:12:37;;;;;;;3.03;1.70;;;14.20;99.90;;;;;;493266;241;28278;-69
2022/07/28 04:14:38;;;;;;;2.20;2.00;;;14.40;99.90;;;;;;493281;241;28163;-73
2022/07/28 04:16:40;;;;;;;3.50;1.90;;;14.30;99.90;;;;;;493177;241;28679;-68
2022/07/28 04:18:41;;;;;;;2.00;1.87;;;14.20;99.90;;;;;;493071;241;28997;-68
2022/07/28 04:20:42;;;;;;;2.10;1.90;;;14.20;99.90;;;;;;492389;241;28840;-68
2022/07/28 04:22:43;;;;;;;1.93;1.83;;;14.30;99.90;;;;;;491856;241;29064;-68
2022/07/28 04:24:45;;;;;;;1.90;1.80;;;14.30;99.90;;;;;;492872;241;28373;-71
2022/07/28 04:26:46;;;;;;;2.20;2.10;;;14.40;99.90;;;;;;493195;241;28160;-67
2022/07/28 04:28:47;;;;;;;2.40;2.20;;;14.40;99.90;;;;;;493283;241;28319;-69
2022/07/28 04:30:49;;;;;;;2.80;2.60;;;14.50;99.90;;;;;;493275;241;28370;-69
2022/07/28 04:32:51;;;;;;;3.80;2.10;;;14.60;99.90;;;;;;493254;241;28656;-71
2022/07/28 04:34:52;;;;;;;1.87;1.77;;;14.60;99.90;;;;;;493142;241;28315;-68
2022/07/28 04:36:54;;;;;;;2.00;1.90;;;14.60;99.90;;;;;;493183;241;28888;-71
2022/07/28 04:38:57;;;;;;;1.73;1.63;;;14.70;99.90;;;;;;493211;241;29107;-68
2022/07/28 04:40:56;;;;;;;2.30;1.80;;;14.70;99.90;;;;;;493051;241;29193;-70
2022/07/28 04:42:57;;;;;;;2.20;2.00;;;14.70;99.90;;;;;;493298;241;29094;-68
2022/07/28 04:44:58;;;;;;;1.70;1.60;;;14.70;99.90;;;;;;493319;241;28377;-69
2022/07/28 04:46:59;;;;;;;1.90;1.80;;;14.60;99.90;;;;;;493182;241;28742;-71
2022/07/28 04:49:01;;;;;;;2.20;2.00;;;14.60;99.90;;;;;;493268;241;28374;-68
2022/07/28 04:51:02;;;;;;;3.37;2.07;;;14.60;99.90;;;;;;493221;241;28707;-69
2022/07/28 04:53:03;;;;;;;2.30;2.20;;;14.70;99.90;;;;;;493251;241;28803;-68
2022/07/28 04:55:04;;;;;;;2.70;2.10;;;14.80;99.90;;;;;;493293;241;28680;-69
2022/07/28 04:57:06;;;;;;;2.20;2.00;;;14.70;99.90;;;;;;493168;241;28711;-69
2022/07/28 04:59:07;;;;;;;2.00;1.90;;;14.70;99.90;;;;;;493285;241;28393;-68
2022/07/28 05:01:08;;;;;;;3.40;2.17;;;14.70;99.90;;;;;;493252;241;29022;-70
2022/07/28 05:03:09;;;;;;;1.80;1.70;;;14.70;99.90;;;;;;493252;241;30018;-69
2022/07/28 05:05:11;;;;;;;2.53;2.37;;;14.80;99.90;;;;;;493282;241;29130;-68
2022/07/28 05:07:12;;;;;;;1.87;1.70;;;14.70;99.90;;;;;;493215;241;29288;-69
2022/07/28 05:09:13;;;;;;;2.63;2.07;;;14.60;99.90;;;;;;493269;241;28667;-69
2022/07/28 05:11:15;;;;;;;1.80;1.70;;;14.60;99.90;;;;;;493266;241;28775;-69
2022/07/28 05:13:16;;;;;;;2.47;2.00;;;14.60;99.90;;;;;;493240;241;28750;-68
2022/07/28 05:15:17;;;;;;;2.20;2.00;;;14.60;99.90;;;;;;493272;241;28460;-69
2022/07/28 05:17:18;;;;;;;3.00;1.80;;;14.80;99.90;;;;;;493171;241;28732;-70
2022/07/28 05:19:20;;;;;;;4.73;1.80;;;14.90;99.90;;;;;;493264;241;28157;-68
2022/07/28 05:21:21;;;;;;;6.20;2.13;;;14.90;99.90;;;;;;493247;241;28724;-69
2022/07/28 05:23:22;;;;;;;2.23;1.90;;;14.70;99.90;;;;;;493281;241;28827;-73
2022/07/28 05:25:23;;;;;;;2.10;2.00;;;14.90;99.90;;;;;;493264;241;28755;-68
2022/07/28 05:27:25;;;;;;;2.30;2.10;;;15.00;99.90;;;;;;493170;241;29965;-69
2022/07/28 05:29:26;;;;;;;3.57;1.90;;;15.00;99.90;;;;;;493258;241;29166;-68
2022/07/28 05:31:27;;;;;;;2.20;2.10;;;15.00;99.90;;;;;;493217;241;29282;-69
2022/07/28 05:33:28;;;;;;;2.60;2.10;;;15.00;99.90;;;;;;493279;241;28755;-71
2022/07/28 05:35:30;;;;;;;2.10;2.00;;;14.90;99.90;;;;;;493136;241;28675;-68
2022/07/28 05:37:31;;;;;;;2.30;2.10;;;14.90;99.90;;;;;;493165;241;28724;-69
2022/07/28 05:39:32;;;;;;;3.07;2.40;;;15.00;99.90;;;;;;493220;241;28781;-68
2022/07/28 05:41:33;;;;;;;2.40;2.20;;;15.20;99.90;;;;;;493272;241;28680;-68
2022/07/28 05:43:36;;;;;;;3.37;2.03;;;15.10;99.90;;;;;;493260;241;28719;-72
2022/07/28 05:45:36;;;;;;;2.50;2.40;;;15.00;99.90;;;;;;493134;241;28684;-68
2022/07/28 05:47:37;;;;;;;2.20;2.00;;;15.10;99.90;;;;;;493193;241;28710;-69
2022/07/28 05:49:38;;;;;;;3.00;2.10;;;15.20;99.90;;;;;;493252;241;28773;-69
2022/07/28 05:51:40;;;;;;;2.97;2.37;;;15.10;99.90;;;;;;493088;241;29212;-69
2022/07/28 05:53:41;;;;;;;2.23;2.10;;;15.20;99.90;;;;;;493282;241;29314;-72
2022/07/28 05:55:42;;;;;;;3.10;2.63;;;15.20;99.90;;;;;;493261;241;29236;-68
2022/07/28 05:57:43;;;;;;;2.97;2.63;;;15.30;99.90;;;;;;493176;241;29347;-69
2022/07/28 05:59:45;;;;;;;2.90;2.70;;;15.40;99.90;;;;;;493252;241;28684;-68
2022/07/28 06:01:46;;;;;;;3.00;2.80;;;15.40;99.90;;;;;;493275;241;28677;-68
2022/07/28 06:03:51;;;;;;;2.97;2.67;;;15.40;99.90;;;;;;493274;241;28725;-72
2022/07/28 06:05:49;;;;;;;2.70;2.50;;;15.40;99.90;;;;;;492946;241;28680;-69
2022/07/28 06:07:50;;;;;;;3.63;2.50;;;15.30;99.90;;;;;;493204;241;28723;-70
2022/07/28 06:09:51;;;;;;;2.70;2.50;;;15.40;99.90;;;;;;493272;241;28677;-68
2022/07/28 06:11:52;;;;;;;2.57;2.37;;;15.50;99.90;;;;;;493270;241;28739;-69
2022/07/28 06:13:53;;;;;;;6.93;2.40;;;15.50;99.90;;;;;;493263;241;28740;-71
2022/07/28 06:15:55;;;;;;;3.13;2.13;;;15.60;99.90;;;;;;493248;241;28672;-68
2022/07/28 06:17:56;;;;;;;3.47;2.40;;;15.50;99.90;;;;;;493211;241;29207;-68
2022/07/28 06:19:57;;;;;;;2.60;2.40;;;15.50;99.90;;;;;;493295;241;28799;-69
2022/07/28 06:21:58;;;;;;;2.50;2.30;;;15.60;99.90;;;;;;493294;241;28683;-69
2022/07/28 06:24:00;;;;;;;7.47;2.43;;;15.60;99.90;;;;;;493285;241;28707;-70
2022/07/28 06:26:01;;;;;;;2.10;2.00;;;15.60;99.90;;;;;;493247;241;28745;-78
2022/07/28 06:28:02;;;;;;;3.33;2.20;;;15.60;99.90;;;;;;493232;241;28712;-69
2022/07/28 06:30:03;;;;;;;5.60;2.40;;;15.70;99.90;;;;;;493284;241;29149;-72
2022/07/28 06:32:05;;;;;;;2.40;2.20;;;15.70;99.90;;;;;;493279;241;28677;-69
2022/07/28 06:34:06;;;;;;;2.40;2.20;;;15.80;99.90;;;;;;493265;241;29306;-69
2022/07/28 06:36:07;;;;;;;3.90;2.40;;;15.80;99.90;;;;;;493068;241;29202;-71
2022/07/28 06:38:08;;;;;;;4.03;2.50;;;15.80;99.90;;;;;;493227;241;29211;-69
2022/07/28 06:40:13;;;;;;;3.17;2.30;;;15.80;99.90;;;;;;493283;241;29247;-72
2022/07/28 06:42:11;;;;;;;2.10;2.00;;;15.70;99.90;;;;;;493090;241;28764;-68
2022/07/28 06:44:12;;;;;;;2.63;2.30;;;15.80;99.90;;;;;;493246;241;28801;-69
2022/07/28 06:46:17;;;;;;;2.60;2.00;;;15.90;99.90;;;;;;493180;241;28668;-69
2022/07/28 06:48:15;;;;;;;2.93;2.43;;;16.00;99.90;;;;;;492984;241;28689;-68
2022/07/28 06:50:16;;;;;;;2.20;1.87;;;16.10;99.90;;;;;;493277;241;28710;-72
2022/07/28 06:52:19;;;;;;;2.17;1.97;;;16.20;99.90;;;;;;493267;241;28811;-69
2022/07/28 06:54:18;;;;;;;3.07;2.00;;;16.40;99.90;;;;;;493121;241;28703;-68
2022/07/28 06:56:20;;;;;;;3.27;1.73;;;16.50;99.90;;;;;;493062;241;28742;-69
2022/07/28 06:58:21;;;;;;;2.00;1.90;;;16.20;99.90;;;;;;493261;241;28764;-69
2022/07/28 07:00:22;;;;;;;2.27;2.10;;;16.30;99.90;;;;;;493251;241;29278;-71
2022/07/28 07:02:23;;;;;;;3.67;1.97;;;16.20;99.90;;;;;;493250;241;29258;-68
2022/07/28 07:04:25;;;;;;;3.23;2.20;;;16.40;99.90;;;;;;493246;241;29219;-70
2022/07/28 07:06:26;;;;;;;2.93;2.70;;;16.30;99.90;;;;;;493113;241;29204;-69
2022/07/28 07:08:27;;;;;;;5.47;3.17;;;16.20;99.90;;;;;;493248;241;28697;-69
2022/07/28 07:10:28;;;;;;;3.20;2.20;;;16.40;99.90;;;;;;493264;241;28787;-72
2022/07/28 07:12:30;;;;;;;2.53;2.13;;;16.60;99.90;;;;;;493263;241;28684;-69
2022/07/28 07:14:31;;;;;;;2.90;2.17;;;16.60;99.90;;;;;;493246;241;28708;-69
2022/07/28 07:16:33;;;;;;;5.27;2.10;;;16.80;99.90;;;;;;493077;241;28727;-69
2022/07/28 07:18:33;;;;;;;3.50;2.37;;;17.00;99.90;;;;;;493171;241;28761;-69
2022/07/28 07:20:35;;;;;;;3.93;2.10;;;17.10;99.90;;;;;;493266;241;28710;-70
2022/07/28 07:22:36;;;;;;;3.80;2.30;;;16.70;99.90;;;;;;493249;241;28680;-69
2022/07/28 07:24:37;;;;;;;2.17;2.07;;;16.90;99.90;;;;;;493255;241;29273;-69
2022/07/28 07:26:38;;;;;;;2.00;1.90;;;16.90;99.90;;;;;;493210;241;29277;-73
2022/07/28 07:28:41;;;;;;;2.23;2.10;;;16.70;99.90;;;;;;493263;241;29261;-69
2022/07/28 07:30:41;;;;;;;3.43;2.20;;;16.80;99.90;;;;;;493227;241;29183;-70
2022/07/28 07:32:42;;;;;;;2.30;2.10;;;16.80;99.90;;;;;;493269;241;28669;-70
2022/07/28 07:34:43;;;;;;;3.97;2.40;;;16.90;99.90;;;;;;493174;241;28692;-70
2022/07/28 07:36:45;;;;;;;2.40;2.20;;;17.00;99.90;;;;;;493141;241;28804;-73
2022/07/28 07:38:46;;;;;;;2.50;2.17;;;17.20;99.90;;;;;;493238;241;28762;-70
2022/07/28 07:40:47;;;;;;;2.43;2.23;;;17.20;99.90;;;;;;493263;241;29678;-71
2022/07/28 07:42:48;;;;;;;3.00;2.10;;;17.60;99.90;;;;;;493285;241;29185;-70
2022/07/28 07:44:50;;;;;;;2.27;2.07;;;17.80;99.90;;;;;;493290;241;28764;-70
2022/07/28 07:46:51;;;;;;;2.63;2.10;;;17.90;99.90;;;;;;493248;241;28819;-73
2022/07/28 07:48:52;;;;;;;2.80;2.20;;;18.20;99.90;;;;;;493282;241;28753;-69
2022/07/28 07:50:54;;;;;;;2.17;2.03;;;17.80;99.90;;;;;;493289;241;28738;-70
2022/07/28 07:52:55;;;;;;;4.10;2.43;;;17.70;99.90;;;;;;493270;241;28723;-69
2022/07/28 07:54:56;;;;;;;4.60;1.90;;;17.80;99.90;;;;;;493294;241;28674;-69
2022/07/28 07:56:57;;;;;;;4.30;2.87;;;18.00;99.90;;;;;;493242;241;28720;-71
2022/07/28 07:58:59;;;;;;;2.77;2.23;;;18.10;99.90;;;;;;493257;241;28674;-69
2022/07/28 08:01:00;;;;;;;3.37;2.37;;;18.10;99.90;;;;;;493269;241;28723;-69
2022/07/28 08:03:01;;;;;;;3.40;2.53;;;18.20;99.90;;;;;;493278;241;29065;-72
2022/07/28 08:05:02;;;;;;;2.97;2.20;;;18.40;99.90;;;;;;493297;241;28686;-69
2022/07/28 08:07:04;;;;;;;2.07;1.97;;;18.60;99.90;;;;;;493212;241;29176;-70
2022/07/28 08:09:05;;;;;;;4.17;2.20;;;18.50;99.90;;;;;;493280;241;29158;-69
2022/07/28 08:11:06;;;;;;;2.00;1.90;;;18.60;99.90;;;;;;493272;241;29279;-70
2022/07/28 08:13:07;;;;;;;2.20;2.00;;;18.90;99.90;;;;;;493301;241;28837;-72
2022/07/28 08:15:09;;;;;;;2.50;2.13;;;19.10;99.90;;;;;;493305;241;28667;-70
2022/07/28 08:17:10;;;;;;;2.20;2.00;;;19.10;99.90;;;;;;493217;241;28723;-70
2022/07/28 08:19:11;;;;;;;3.43;2.00;;;19.20;99.90;;;;;;493277;241;28750;-69
2022/07/28 08:21:13;;;;;;;2.30;2.10;;;19.20;99.90;;;;;;493252;241;28696;-70
2022/07/28 08:23:14;;;;;;;3.80;2.03;;;19.20;99.90;;;;;;493316;241;28781;-72
2022/07/28 08:25:15;;;;;;;3.20;2.00;;;19.20;99.90;;;;;;493284;241;28677;-70
2022/07/28 08:27:16;;;;;;;3.03;2.13;;;19.10;99.90;;;;;;493223;241;28712;-71
2022/07/28 08:29:18;;;;;;;2.37;2.17;;;19.20;99.90;;;;;;493247;241;28696;-70
2022/07/28 08:31:20;;;;;;;4.50;2.27;;;19.20;99.90;;;;;;493263;241;28702;-69
2022/07/28 08:33:20;;;;;;;5.00;2.43;;;19.40;99.90;;;;;;493169;241;28827;-72
2022/07/28 08:35:21;;;;;;;4.63;2.30;;;19.40;99.90;;;;;;493002;241;29160;-70
2022/07/28 08:37:22;;;;;;;2.50;2.00;;;19.30;99.90;;;;;;493214;241;29198;-71
2022/07/28 08:39:24;;;;;;;5.33;2.30;;;19.40;99.90;;;;;;493265;241;28773;-69
2022/07/28 08:41:25;;;;;;;6.30;2.40;;;19.40;99.90;;;;;;493259;241;28770;-69
2022/07/28 08:43:26;;;;;;;3.83;2.20;;;19.50;99.90;;;;;;493286;241;28735;-72
2022/07/28 08:45:28;;;;;;;3.00;2.17;;;19.40;99.90;;;;;;493281;241;29232;-69
2022/07/28 08:47:29;;;;;;;2.40;2.20;;;19.40;99.90;;;;;;493199;241;29195;-69
2022/07/28 08:49:30;;;;;;;2.30;2.10;;;19.70;99.90;;;;;;493279;241;30134;-69
2022/07/28 08:51:31;;;;;;;5.97;2.43;;;19.70;99.90;;;;;;493260;241;29170;-70
2022/07/28 08:53:33;;;;;;;2.63;2.40;;;19.80;99.90;;;;;;493269;241;28705;-73
2022/07/28 08:55:34;;;;;;;3.33;2.80;;;19.80;99.90;;;;;;493271;241;28740;-69
2022/07/28 08:57:35;;;;;;;5.07;2.43;;;20.00;99.90;;;;;;493188;241;28719;-69
2022/07/28 08:59:36;;;;;;;2.53;2.33;;;20.00;99.90;;;;;;493244;241;28692;-70
2022/07/28 09:01:38;;;;;;;3.47;2.50;;;20.00;99.90;;;;;;493279;241;28720;-69
2022/07/28 09:03:39;;;;;;;4.23;2.70;;;20.20;99.90;;;;;;493283;241;29301;-72
2022/07/28 09:05:40;;;;;;;4.93;2.60;;;20.10;99.90;;;;;;493272;241;29247;-69
2022/07/28 09:07:43;;;;;;;2.20;2.07;;;20.30;99.90;;;;;;493210;241;29188;-70
2022/07/28 09:09:43;;;;;;;2.70;2.50;;;20.70;99.90;;;;;;493188;241;29122;-69
2022/07/28 09:11:44;;;;;;;3.00;2.50;;;20.70;99.90;;;;;;493218;241;28711;-69
2022/07/28 09:13:45;;;;;;;2.83;2.50;;;20.90;99.90;;;;;;493287;241;28708;-72
2022/07/28 09:15:46;;;;;;;3.20;2.53;;;21.10;99.90;;;;;;493262;241;28752;-70
2022/07/28 09:17:48;;;;;;;3.87;3.10;;;21.30;99.90;;;;;;493213;241;28830;-70
2022/07/28 09:19:49;;;;;;;3.77;3.10;;;21.30;99.90;;;;;;493208;241;28782;-70
2022/07/28 09:21:50;;;;;;;3.63;2.77;;;21.30;99.90;;;;;;493290;241;28692;-70
2022/07/28 09:23:52;;;;;;;4.23;2.73;;;21.60;99.90;;;;;;493277;241;28712;-72
2022/07/28 09:25:53;;;;;;;3.70;2.70;;;21.70;99.90;;;;;;493250;241;29133;-69
2022/07/28 09:27:54;;;;;;;3.55;2.85;;;21.70;99.90;;;;;;492824;241;42898;-71
2022/07/28 09:29:55;;;;;;;8.53;3.30;;;21.60;99.90;;;;;;493245;241;28602;-69
2022/07/28 09:31:57;;;;;;;2.80;2.60;;;21.70;99.90;;;;;;493276;241;28693;-70
2022/07/28 09:33:59;;;;;;;4.10;2.90;;;21.60;99.90;;;;;;493152;241;28711;-71
2022/07/28 09:35:59;;;;;;;3.67;2.70;;;21.30;99.90;;;;;;493038;241;28677;-75
2022/07/28 09:38:00;;;;;;;3.80;2.87;;;21.30;99.90;;;;;;493208;241;28720;-70
2022/07/28 09:40:01;;;;;;;3.70;3.00;;;21.40;99.90;;;;;;493259;241;28768;-70
2022/07/28 09:42:03;;;;;;;3.30;2.90;;;21.70;99.90;;;;;;493269;241;28771;-70
2022/07/28 09:44:05;;;;;;;3.30;3.00;;;21.80;99.90;;;;;;493259;241;28716;-70
2022/07/28 09:46:05;;;;;;;4.13;2.77;;;21.90;99.90;;;;;;493170;241;28748;-70
2022/07/28 09:48:06;;;;;;;4.10;2.83;;;22.10;99.90;;;;;;493248;241;28757;-71
2022/07/28 09:50:08;;;;;;;3.50;3.13;;;22.10;99.90;;;;;;493259;241;29641;-73
2022/07/28 09:52:09;;;;;;;2.97;2.67;;;22.20;99.90;;;;;;493244;241;29167;-70
2022/07/28 09:54:10;;;;;;;4.97;3.27;;;22.40;99.90;;;;;;493263;241;29198;-71
2022/07/28 09:56:12;;;;;;;3.17;2.80;;;22.60;99.90;;;;;;493191;241;29116;-69
2022/07/28 09:58:13;;;;;;;3.63;3.30;;;22.60;99.90;;;;;;493262;241;28754;-70
2022/07/28 10:00:14;;;;;;;6.70;3.63;;;22.70;99.90;;;;;;493201;241;28718;-69
2022/07/28 10:02:15;;;;;;;5.07;3.33;;;22.60;99.90;;;;;;493272;241;28678;-70
2022/07/28 10:04:16;;;;;;;4.10;3.70;;;22.60;99.90;;;;;;493291;241;28740;-71
2022/07/28 10:06:18;;;;;;;4.30;3.60;;;22.30;99.90;;;;;;493193;241;28749;-69
2022/07/28 10:08:19;;;;;;;7.10;4.17;;;22.40;99.90;;;;;;493251;241;28785;-69
2022/07/28 10:10:20;;;;;;;5.13;4.40;;;22.80;99.90;;;;;;493277;241;28818;-72
2022/07/28 10:12:22;;;;;;;5.33;4.37;;;22.90;99.90;;;;;;493283;241;28697;-70
2022/07/28 10:14:23;;;;;;;5.30;4.10;;;23.00;99.90;;;;;;493260;241;29154;-71
2022/07/28 10:16:24;;;;;;;4.40;3.97;;;23.00;99.90;;;;;;493186;241;29186;-69
2022/07/28 10:18:25;;;;;;;5.57;4.17;;;23.20;99.90;;;;;;493235;241;29308;-70
2022/07/28 10:20:26;;;;;;;5.70;3.90;;;23.30;99.90;;;;;;493276;241;29287;-73
2022/07/28 10:22:28;;;;;;;4.13;3.83;;;23.60;99.90;;;;;;493271;241;28797;-69
2022/07/28 10:24:29;;;;;;;6.50;3.83;;;23.60;99.90;;;;;;493256;241;28709;-70
2022/07/28 10:26:30;;;;;;;5.03;4.53;;;23.60;99.90;;;;;;493211;241;28683;-69
2022/07/28 10:28:33;;;;;;;4.40;4.00;;;23.60;99.90;;;;;;493231;241;28728;-69
2022/07/28 10:30:33;;;;;;;5.07;4.13;;;23.50;99.90;;;;;;493219;241;28773;-72
2022/07/28 10:32:34;;;;;;;4.00;3.70;;;23.50;99.90;;;;;;493291;241;28769;-69
2022/07/28 10:34:35;;;;;;;3.60;3.30;;;23.60;99.90;;;;;;493249;241;28717;-71